Time;durP1;ratioP1;P1;durP2;ratioP2;P2;SDS_P1;SDS_P2;PMS_P1;PMS_P2;Temp;Humidity;BMP_temperature;BMP_pressure;BME280_temperature;BME280_humidity;BME280_pressure;Samples;Min_cycle;Max_cycle;Signal;HPM_P1;HPM_P2
2022/07/03 00:02:09;;;;;;;2.13;0.88;;;17.80;55.60;;;;;;5011365;28;20028;-72
2022/07/03 00:04:34;;;;;;;1.85;1.20;;;17.70;55.70;;;;;;5004668;28;20059;-73
2022/07/03 00:07:00;;;;;;;6.72;1.27;;;17.60;55.90;;;;;;4979547;28;20029;-73
2022/07/03 00:09:25;;;;;;;0.80;0.80;;;17.60;55.90;;;;;;5021922;28;20032;-72
2022/07/03 00:11:51;;;;;;;1.35;1.02;;;17.50;56.10;;;;;;4999253;28;20045;-72
2022/07/03 00:14:16;;;;;;;1.50;0.80;;;17.50;56.10;;;;;;5031515;28;20708;-72
2022/07/03 00:16:42;;;;;;;1.55;0.90;;;17.50;56.20;;;;;;5029644;28;20132;-73
2022/07/03 00:19:07;;;;;;;2.38;0.90;;;17.40;56.50;;;;;;5010817;28;20028;-72
2022/07/03 00:21:45;;;;;;;3.75;0.95;;;17.40;56.50;;;;;;5044264;28;20040;-72
2022/07/03 00:24:32;;;;;;;2.80;0.90;;;17.30;56.80;;;;;;5016903;28;20057;-73
2022/07/03 00:26:58;;;;;;;2.25;1.20;;;17.30;56.90;;;;;;5011501;28;20045;-73
2022/07/03 00:29:24;;;;;;;0.98;0.80;;;17.20;56.80;;;;;;5013236;28;20052;-72
2022/07/03 00:31:49;;;;;;;0.98;0.82;;;17.20;57.00;;;;;;5029929;28;20121;-73
2022/07/03 00:34:16;;;;;;;2.22;0.80;;;17.20;57.00;;;;;;5020839;28;20037;-74
2022/07/03 00:36:41;;;;;;;1.10;0.80;;;17.10;57.20;;;;;;5016538;28;20033;-73
2022/07/03 00:39:07;;;;;;;2.60;0.88;;;17.10;57.40;;;;;;5019979;28;20577;-73
2022/07/03 00:41:34;;;;;;;1.17;1.08;;;17.00;57.40;;;;;;5012541;28;20044;-72
2022/07/03 00:44:00;;;;;;;3.13;1.42;;;17.00;57.70;;;;;;5034510;28;20470;-71
2022/07/03 00:46:26;;;;;;;3.33;0.98;;;16.90;57.60;;;;;;4984416;28;20514;-72
2022/07/03 00:48:53;;;;;;;2.53;0.90;;;16.90;57.80;;;;;;5003950;28;20055;-72
2022/07/03 00:51:24;;;;;;;1.08;0.98;;;16.90;57.90;;;;;;5012896;28;20029;-71
2022/07/03 00:53:51;;;;;;;1.45;0.80;;;16.80;58.00;;;;;;5022609;28;20038;-71
2022/07/03 00:56:17;;;;;;;2.85;1.20;;;16.80;58.20;;;;;;5025395;28;20051;-71
2022/07/03 00:58:42;;;;;;;4.22;1.30;;;16.80;58.20;;;;;;5027871;28;20645;-71
2022/07/03 01:01:08;;;;;;;3.63;1.02;;;16.80;58.40;;;;;;5012182;28;20029;-71
2022/07/03 01:03:35;;;;;;;2.05;0.85;;;16.70;58.40;;;;;;5013190;28;20863;-71
2022/07/03 01:06:03;;;;;;;1.50;0.80;;;16.70;58.60;;;;;;5013675;28;20044;-71
2022/07/03 01:08:41;;;;;;;1.92;0.98;;;16.70;58.80;;;;;;4987895;28;20055;-71
2022/07/03 01:11:31;;;;;;;1.38;0.80;;;16.70;58.90;;;;;;5033209;28;20041;-71
2022/07/03 01:14:04;;;;;;;1.65;1.30;;;16.60;59.20;;;;;;5012085;28;20029;-71
2022/07/03 01:16:58;;;;;;;1.65;1.02;;;16.60;58.90;;;;;;5024815;28;20048;-71
2022/07/03 01:19:43;;;;;;;1.05;0.90;;;16.60;59.30;;;;;;5029655;28;20465;-71
2022/07/03 01:22:41;;;;;;;1.45;0.77;;;16.60;59.40;;;;;;5031256;28;20041;-71
2022/07/03 01:25:25;;;;;;;1.77;0.90;;;16.50;59.30;;;;;;5014419;28;20049;-71
2022/07/03 01:27:53;;;;;;;1.65;0.98;;;16.50;59.10;;;;;;5043906;28;20178;-72
2022/07/03 01:30:19;;;;;;;1.25;1.15;;;16.40;59.10;;;;;;5044848;28;20531;-72
2022/07/03 01:32:45;;;;;;;1.38;1.27;;;16.40;59.40;;;;;;5033887;28;20071;-71
2022/07/03 01:35:13;;;;;;;2.20;0.95;;;16.40;59.50;;;;;;5024259;28;20125;-71
2022/07/03 01:37:39;;;;;;;2.25;0.95;;;16.30;59.50;;;;;;5027358;28;20067;-72
2022/07/03 01:40:05;;;;;;;1.33;1.05;;;16.30;59.70;;;;;;5010456;28;20884;-72
2022/07/03 01:42:33;;;;;;;1.73;1.00;;;16.30;59.70;;;;;;5034052;28;20148;-74
2022/07/03 01:44:59;;;;;;;1.13;1.02;;;16.20;59.90;;;;;;5029219;28;20039;-72
2022/07/03 01:47:24;;;;;;;1.85;1.00;;;16.20;59.90;;;;;;5033306;28;20032;-71
2022/07/03 01:49:50;;;;;;;2.28;0.90;;;16.20;60.90;;;;;;5030940;28;20130;-72
2022/07/03 01:52:16;;;;;;;1.23;0.70;;;16.20;60.30;;;;;;5050374;28;20562;-73
2022/07/03 01:54:42;;;;;;;1.50;0.98;;;16.10;60.20;;;;;;4989679;28;20128;-72
2022/07/03 01:57:07;;;;;;;1.83;0.98;;;16.10;60.40;;;;;;5041300;28;20593;-73
2022/07/03 01:59:33;;;;;;;2.13;0.77;;;16.10;60.50;;;;;;5032098;28;20037;-73
2022/07/03 02:02:00;;;;;;;1.17;1.08;;;16.00;60.50;;;;;;4990318;28;20489;-72
2022/07/03 02:04:33;;;;;;;1.17;0.95;;;16.00;60.70;;;;;;5040583;28;20128;-72
2022/07/03 02:07:21;;;;;;;1.05;0.90;;;15.90;60.90;;;;;;5026569;28;20036;-72
2022/07/03 02:09:54;;;;;;;1.48;1.20;;;15.80;61.60;;;;;;5007515;28;20028;-72
2022/07/03 02:12:20;;;;;;;4.03;1.20;;;15.80;61.50;;;;;;5025302;28;20125;-72
2022/07/03 02:14:53;;;;;;;1.27;1.17;;;15.80;61.40;;;;;;5039721;28;20227;-73
2022/07/03 02:17:20;;;;;;;2.35;1.27;;;15.70;61.90;;;;;;4998632;28;20044;-73
2022/07/03 02:19:59;;;;;;;1.73;1.30;;;15.70;61.70;;;;;;4987629;28;20029;-72
2022/07/03 02:22:37;;;;;;;1.27;1.17;;;15.70;61.90;;;;;;5035696;28;20711;-73
2022/07/03 02:25:07;;;;;;;1.33;1.00;;;15.70;62.40;;;;;;5029340;28;20040;-73
2022/07/03 02:28:17;;;;;;;1.23;1.13;;;15.70;62.20;;;;;;5020353;28;20112;-73
2022/07/03 02:30:43;;;;;;;1.30;1.02;;;15.70;62.50;;;;;;4950294;28;20127;-73
2022/07/03 02:33:10;;;;;;;1.30;1.20;;;15.60;62.20;;;;;;4943741;28;20120;-71
2022/07/03 02:35:36;;;;;;;1.10;0.95;;;15.60;62.30;;;;;;4972470;28;20042;-72
2022/07/03 02:38:06;;;;;;;1.80;1.20;;;15.60;62.30;;;;;;4932926;28;20035;-73
2022/07/03 02:40:56;;;;;;;1.23;1.13;;;15.60;62.40;;;;;;4958794;28;20137;-73
2022/07/03 02:43:49;;;;;;;1.60;0.90;;;15.60;63.00;;;;;;4932139;28;20039;-72
2022/07/03 02:46:49;;;;;;;1.70;1.60;;;15.50;63.00;;;;;;4923825;28;20869;-72
2022/07/03 02:49:22;;;;;;;1.60;1.00;;;15.50;62.60;;;;;;4913147;28;20081;-72
2022/07/03 02:52:10;;;;;;;3.20;1.45;;;15.50;62.80;;;;;;4919564;28;20679;-72
2022/07/03 02:54:42;;;;;;;1.77;1.05;;;15.40;63.20;;;;;;4894686;28;20031;-74
2022/07/03 02:57:07;;;;;;;;;;;15.40;62.90;;;;;;4895009;29;20050;-71
2022/07/03 02:59:53;;;;;;;1.88;1.08;;;15.40;62.60;;;;;;4933360;28;19914;-72
2022/07/03 03:02:22;;;;;;;1.88;1.20;;;15.30;63.00;;;;;;4957855;28;20033;-72
2022/07/03 03:05:13;;;;;;;2.47;1.10;;;15.30;62.70;;;;;;5015666;28;20869;-72
2022/07/03 03:07:52;;;;;;;1.80;1.30;;;15.30;63.50;;;;;;4997371;28;20056;-73
2022/07/03 03:10:18;;;;;;;2.08;1.35;;;15.30;63.50;;;;;;4998145;28;20044;-72
2022/07/03 03:12:45;;;;;;;1.08;0.90;;;15.30;63.20;;;;;;5002298;28;20148;-71
2022/07/03 03:15:12;;;;;;;1.75;1.23;;;15.20;63.40;;;;;;4969174;28;20406;-73
2022/07/03 03:17:45;;;;;;;1.40;0.90;;;15.10;63.40;;;;;;5001226;28;20033;-72
2022/07/03 03:20:15;;;;;;;2.47;1.02;;;15.10;63.70;;;;;;4999771;28;20033;-73
2022/07/03 03:23:18;;;;;;;0.93;0.90;;;15.10;63.80;;;;;;5005831;28;20076;-73
2022/07/03 03:25:44;;;;;;;1.30;1.10;;;15.10;64.20;;;;;;5011633;28;20066;-71
2022/07/03 03:28:10;;;;;;;2.88;1.17;;;15.10;63.70;;;;;;4982577;28;20034;-72
2022/07/03 03:30:36;;;;;;;2.03;1.20;;;15.10;63.90;;;;;;4972521;28;20037;-72
2022/07/03 03:33:02;;;;;;;5.80;1.33;;;15.10;63.90;;;;;;4994358;28;20120;-74
2022/07/03 03:35:27;;;;;;;2.10;1.10;;;15.00;64.00;;;;;;5007657;28;20033;-71
2022/07/03 03:37:53;;;;;;;1.63;1.00;;;15.00;64.00;;;;;;4997640;28;20521;-72
2022/07/03 03:40:19;;;;;;;2.40;1.08;;;15.00;64.20;;;;;;5001328;28;20548;-72
2022/07/03 03:42:44;;;;;;;2.03;1.10;;;15.00;64.30;;;;;;5016125;28;20076;-72
2022/07/03 03:45:10;;;;;;;2.53;1.23;;;15.00;64.40;;;;;;5033224;28;20052;-72
2022/07/03 03:47:36;;;;;;;4.57;1.10;;;14.90;64.60;;;;;;4995908;28;20059;-71
2022/07/03 03:50:02;;;;;;;1.92;1.30;;;14.90;64.50;;;;;;5031313;28;20030;-71
2022/07/03 03:52:28;;;;;;;1.20;1.10;;;14.90;64.70;;;;;;5032065;28;20090;-70
2022/07/03 03:54:54;;;;;;;1.65;1.10;;;14.90;64.90;;;;;;4986437;28;20087;-71
2022/07/03 03:57:21;;;;;;;2.13;1.38;;;14.90;65.00;;;;;;4993359;28;20037;-72
2022/07/03 03:59:47;;;;;;;3.15;1.15;;;14.90;65.10;;;;;;4980056;28;20037;-72
2022/07/03 04:02:12;;;;;;;1.27;1.20;;;14.90;65.20;;;;;;4987790;28;20029;-71
2022/07/03 04:04:38;;;;;;;2.67;1.50;;;14.90;65.30;;;;;;5013416;28;20595;-72
2022/07/03 04:07:03;;;;;;;1.50;1.40;;;14.90;65.40;;;;;;5017037;28;20048;-71
2022/07/03 04:09:29;;;;;;;1.70;1.10;;;14.90;65.30;;;;;;4990490;28;20091;-72
2022/07/03 04:11:54;;;;;;;2.28;1.30;;;14.90;65.40;;;;;;5013626;28;20502;-72
2022/07/03 04:14:20;;;;;;;1.20;1.10;;;14.90;65.50;;;;;;5015070;28;20036;-72
2022/07/03 04:16:46;;;;;;;1.52;1.40;;;14.90;65.60;;;;;;5008091;28;20084;-71
2022/07/03 04:19:11;;;;;;;1.90;1.20;;;14.90;65.80;;;;;;5007613;28;20131;-73
2022/07/03 04:21:36;;;;;;;2.83;1.83;;;14.90;65.80;;;;;;5018660;28;20040;-72
2022/07/03 04:24:02;;;;;;;1.10;1.00;;;14.90;66.00;;;;;;4998176;28;20106;-73
2022/07/03 04:26:28;;;;;;;1.50;1.27;;;14.90;65.90;;;;;;4985239;28;20178;-72
2022/07/03 04:28:53;;;;;;;2.58;1.20;;;14.90;65.90;;;;;;5015770;28;20146;-71
2022/07/03 04:31:19;;;;;;;2.10;1.55;;;14.90;66.00;;;;;;4989377;28;21324;-73
2022/07/03 04:33:44;;;;;;;1.52;1.30;;;15.00;66.10;;;;;;5012764;28;20037;-71
2022/07/03 04:36:10;;;;;;;1.50;1.17;;;15.00;66.10;;;;;;4998965;28;20046;-72
2022/07/03 04:38:35;;;;;;;3.15;1.38;;;15.00;66.10;;;;;;5026546;28;20143;-71
2022/07/03 04:41:01;;;;;;;1.65;1.15;;;15.00;66.40;;;;;;5008189;28;20127;-72
2022/07/03 04:43:26;;;;;;;1.40;1.30;;;15.00;66.40;;;;;;5016611;28;20086;-72
2022/07/03 04:45:52;;;;;;;1.38;1.27;;;15.10;66.40;;;;;;5013635;28;20048;-72
2022/07/03 04:48:17;;;;;;;1.88;1.27;;;15.10;66.40;;;;;;5047605;28;20097;-72
2022/07/03 04:50:43;;;;;;;2.63;1.95;;;15.10;66.30;;;;;;5027043;28;20120;-72
2022/07/03 04:53:08;;;;;;;1.50;1.40;;;15.10;66.30;;;;;;5033292;28;20837;-71
2022/07/03 04:55:34;;;;;;;4.20;1.70;;;15.10;66.40;;;;;;5032142;28;20070;-72
2022/07/03 04:57:59;;;;;;;2.85;1.30;;;15.20;66.40;;;;;;5023913;28;20581;-72
2022/07/03 05:00:25;;;;;;;4.88;1.30;;;15.20;66.40;;;;;;5008370;28;20049;-72
2022/07/03 05:02:50;;;;;;;5.40;1.50;;;15.20;66.40;;;;;;5035065;28;20036;-72
2022/07/03 05:05:16;;;;;;;4.15;1.45;;;15.30;66.40;;;;;;5024854;28;20636;-72
2022/07/03 05:07:41;;;;;;;3.38;1.92;;;15.30;66.40;;;;;;5034522;28;20041;-73
2022/07/03 05:10:07;;;;;;;2.45;1.80;;;15.40;66.50;;;;;;5034245;28;20043;-72
2022/07/03 05:12:33;;;;;;;3.30;1.50;;;15.40;66.60;;;;;;5022461;28;20031;-73
2022/07/03 05:14:58;;;;;;;1.83;1.40;;;15.40;66.60;;;;;;5029848;28;20152;-73
2022/07/03 05:17:24;;;;;;;3.20;1.42;;;15.50;66.70;;;;;;5034532;28;20141;-72
2022/07/03 05:20:23;;;;;;;1.83;1.40;;;15.50;66.50;;;;;;5029363;28;20037;-71
2022/07/03 05:22:38;;;;;;;4.10;1.70;;;15.50;66.70;;;;;;5046961;28;20059;-71
2022/07/03 05:25:03;;;;;;;2.05;1.60;;;15.60;66.50;;;;;;5025041;28;20066;-72
2022/07/03 05:27:29;;;;;;;2.25;1.98;;;15.70;66.50;;;;;;5051820;28;20681;-71
2022/07/03 05:29:54;;;;;;;5.25;1.67;;;15.70;66.50;;;;;;5038173;28;20654;-71
2022/07/03 05:32:20;;;;;;;2.72;1.50;;;15.80;66.60;;;;;;5039278;28;20397;-72
2022/07/03 05:34:45;;;;;;;2.22;1.98;;;15.80;66.50;;;;;;5026595;28;20056;-72
2022/07/03 05:37:11;;;;;;;2.38;1.80;;;15.90;66.40;;;;;;5037687;28;20699;-71
2022/07/03 05:39:37;;;;;;;3.00;1.90;;;15.90;66.20;;;;;;5032539;28;20028;-72
2022/07/03 05:42:03;;;;;;;3.72;1.85;;;16.00;66.00;;;;;;5028362;28;20459;-73
2022/07/03 05:44:29;;;;;;;1.80;1.70;;;16.10;66.20;;;;;;5036394;28;20059;-72
2022/07/03 05:46:54;;;;;;;2.53;1.98;;;16.10;66.30;;;;;;5004602;28;20505;-71
2022/07/03 05:49:20;;;;;;;2.13;1.73;;;16.20;66.20;;;;;;5031846;28;20055;-72
2022/07/03 05:51:45;;;;;;;2.88;1.60;;;16.20;66.00;;;;;;5002892;28;20159;-72
2022/07/03 05:54:11;;;;;;;3.08;2.22;;;16.30;66.00;;;;;;5034411;28;20029;-71
2022/07/03 05:56:36;;;;;;;2.97;1.75;;;16.40;65.90;;;;;;5020619;28;20456;-72
2022/07/03 05:59:02;;;;;;;2.28;1.98;;;16.50;66.00;;;;;;5029207;28;20447;-72
2022/07/03 06:01:27;;;;;;;2.53;1.70;;;16.60;65.70;;;;;;5025619;28;20587;-72
2022/07/03 06:03:53;;;;;;;2.33;1.77;;;16.60;65.60;;;;;;5011971;28;20083;-73
2022/07/03 06:06:19;;;;;;;3.28;2.05;;;16.70;65.40;;;;;;4993415;28;20054;-73
2022/07/03 06:08:44;;;;;;;3.65;2.00;;;16.80;65.30;;;;;;5026390;28;20040;-72
2022/07/03 06:11:09;;;;;;;3.15;2.13;;;16.90;65.10;;;;;;5037825;28;20570;-73
2022/07/03 06:13:35;;;;;;;3.97;1.90;;;17.00;65.10;;;;;;5030806;28;20687;-74
2022/07/03 06:16:01;;;;;;;2.40;1.65;;;17.00;64.90;;;;;;5029184;28;20045;-72
2022/07/03 06:18:26;;;;;;;2.53;1.63;;;17.20;64.80;;;;;;5038929;28;20063;-72
2022/07/03 06:20:52;;;;;;;3.78;1.40;;;17.20;64.60;;;;;;5019614;28;20120;-73
2022/07/03 06:23:18;;;;;;;2.65;1.80;;;17.40;64.50;;;;;;5026901;28;20039;-71
2022/07/03 06:25:43;;;;;;;1.88;1.58;;;17.50;64.20;;;;;;5015929;28;20036;-72
2022/07/03 06:28:09;;;;;;;4.07;1.50;;;17.60;63.90;;;;;;4991311;28;20887;-72
2022/07/03 06:30:34;;;;;;;5.18;2.13;;;17.70;63.60;;;;;;5010254;28;20772;-72
2022/07/03 06:33:00;;;;;;;1.75;1.58;;;17.80;63.40;;;;;;5048009;28;20807;-71
2022/07/03 06:35:25;;;;;;;3.03;1.67;;;17.90;63.20;;;;;;5049453;28;20033;-72
2022/07/03 06:37:51;;;;;;;4.75;1.60;;;18.10;63.10;;;;;;4994495;28;20459;-72
2022/07/03 06:40:16;;;;;;;2.17;1.83;;;18.20;62.90;;;;;;5038008;28;20120;-73
2022/07/03 06:42:42;;;;;;;3.00;1.58;;;18.30;62.70;;;;;;5022308;28;20304;-71
2022/07/03 06:45:08;;;;;;;1.70;1.60;;;18.50;62.40;;;;;;4985976;28;20040;-72
2022/07/03 06:47:38;;;;;;;2.78;1.75;;;18.60;62.10;;;;;;4985178;28;20036;-71
2022/07/03 06:50:03;;;;;;;2.95;1.58;;;18.80;62.00;;;;;;4991301;28;20026;-72
2022/07/03 06:52:29;;;;;;;3.45;1.70;;;18.90;61.70;;;;;;4984503;28;20445;-72
2022/07/03 06:54:55;;;;;;;1.95;1.50;;;19.10;61.50;;;;;;4980152;28;20037;-71
2022/07/03 06:57:20;;;;;;;1.67;1.40;;;19.20;61.20;;;;;;4999176;28;20049;-74
2022/07/03 06:59:46;;;;;;;2.38;1.40;;;19.40;61.00;;;;;;4988393;28;20038;-71
2022/07/03 07:02:12;;;;;;;2.33;1.60;;;19.60;60.60;;;;;;4994049;28;20116;-71
2022/07/03 07:04:37;;;;;;;2.03;1.30;;;19.70;60.40;;;;;;4987702;28;20113;-72
2022/07/03 07:07:03;;;;;;;1.50;1.40;;;19.90;60.10;;;;;;4981081;28;20061;-71
2022/07/03 07:09:29;;;;;;;2.92;1.20;;;20.00;60.60;;;;;;4961661;28;20098;-71
2022/07/03 07:11:54;;;;;;;1.48;1.38;;;20.20;59.60;;;;;;4979620;28;20065;-71
2022/07/03 07:14:20;;;;;;;5.55;1.50;;;20.40;59.40;;;;;;4969770;28;20056;-72
2022/07/03 07:16:45;;;;;;;1.60;1.50;;;20.50;59.00;;;;;;4975341;28;20079;-73
2022/07/03 07:19:11;;;;;;;1.45;1.13;;;20.60;58.80;;;;;;4967681;28;20117;-71
2022/07/03 07:21:36;;;;;;;3.92;1.48;;;20.80;58.60;;;;;;4988904;28;20036;-73
2022/07/03 07:24:05;;;;;;;2.05;1.30;;;21.00;58.30;;;;;;4958436;28;20048;-74
2022/07/03 07:26:33;;;;;;;2.72;1.42;;;21.20;58.10;;;;;;4954334;28;20035;-73
2022/07/03 07:28:58;;;;;;;1.77;1.30;;;21.40;57.80;;;;;;4936231;28;22350;-72
2022/07/03 07:31:24;;;;;;;1.45;1.35;;;21.60;57.60;;;;;;4946207;28;20033;-70
2022/07/03 07:33:49;;;;;;;3.65;1.33;;;21.70;57.20;;;;;;4973922;28;20038;-71
2022/07/03 07:36:15;;;;;;;3.13;1.35;;;21.90;57.00;;;;;;4989438;28;20041;-73
2022/07/03 07:38:40;;;;;;;1.52;1.33;;;22.10;56.80;;;;;;4989156;28;20111;-73
2022/07/03 07:41:06;;;;;;;1.45;1.23;;;22.30;56.50;;;;;;5002592;28;20688;-72
2022/07/03 07:43:31;;;;;;;2.03;1.05;;;22.50;56.20;;;;;;5001022;28;21075;-72
2022/07/03 07:45:57;;;;;;;2.72;1.50;;;22.70;55.90;;;;;;4946844;28;20671;-72
2022/07/03 07:48:22;;;;;;;5.60;1.52;;;22.90;55.60;;;;;;4959473;28;20041;-72
2022/07/03 07:50:49;;;;;;;2.67;1.65;;;23.10;55.40;;;;;;4987815;28;20049;-73
2022/07/03 07:53:15;;;;;;;1.33;1.10;;;23.30;55.10;;;;;;4971199;28;20187;-73
2022/07/03 07:55:41;;;;;;;3.05;1.30;;;23.50;54.80;;;;;;4970538;28;20544;-72
2022/07/03 07:58:07;;;;;;;1.77;1.20;;;23.70;54.50;;;;;;4998740;28;20056;-73
2022/07/03 08:00:33;;;;;;;2.20;1.15;;;23.90;54.20;;;;;;4953431;28;20034;-73
2022/07/03 08:05:42;;;;;;;2.97;1.25;;;24.30;53.70;;;;;;5008423;28;20447;-74
2022/07/03 08:08:10;;;;;;;1.35;1.25;;;24.60;53.30;;;;;;4990318;28;20691;-73
2022/07/03 08:10:47;;;;;;;1.17;1.08;;;24.80;52.90;;;;;;4985339;28;20042;-74
2022/07/03 08:13:13;;;;;;;1.48;1.08;;;24.90;52.60;;;;;;4993842;28;20120;-73
2022/07/03 08:15:39;;;;;;;1.20;1.10;;;25.10;52.40;;;;;;4971850;28;20037;-73
2022/07/03 08:18:05;;;;;;;1.13;1.00;;;25.20;52.20;;;;;;4948557;28;20038;-74
2022/07/03 08:20:30;;;;;;;4.25;1.40;;;25.40;51.90;;;;;;4993423;28;20064;-74
2022/07/03 08:22:56;;;;;;;5.03;1.05;;;25.60;51.50;;;;;;4976958;28;20519;-73
2022/07/03 08:25:21;;;;;;;0.80;0.80;;;25.70;51.30;;;;;;5007666;28;20099;-74
2022/07/03 08:27:47;;;;;;;3.10;1.20;;;25.90;51.10;;;;;;4981153;28;20029;-74
2022/07/03 08:30:15;;;;;;;1.08;1.00;;;26.10;50.90;;;;;;4950277;28;20034;-74
2022/07/03 08:32:41;;;;;;;3.30;1.10;;;26.30;50.60;;;;;;4991095;28;20038;-74
2022/07/03 08:35:07;;;;;;;2.85;1.13;;;26.50;50.40;;;;;;5006755;28;20151;-74
2022/07/03 08:37:32;;;;;;;1.38;1.20;;;26.70;50.20;;;;;;4982997;28;20042;-73
2022/07/03 08:39:58;;;;;;;1.58;1.27;;;27.00;50.00;;;;;;4993243;28;20043;-74
2022/07/03 08:42:24;;;;;;;1.63;1.23;;;27.10;49.50;;;;;;5005398;28;20105;-75
2022/07/03 08:44:52;;;;;;;1.10;1.10;;;27.30;49.10;;;;;;4988720;28;20542;-74
2022/07/03 08:47:17;;;;;;;1.67;1.00;;;27.50;48.70;;;;;;4971263;28;20065;-73
2022/07/03 08:49:43;;;;;;;1.40;0.80;;;27.70;48.70;;;;;;4976033;28;20177;-73
2022/07/03 08:52:10;;;;;;;0.85;0.82;;;28.00;48.10;;;;;;4966020;28;20090;-73
2022/07/03 08:54:36;;;;;;;2.88;1.13;;;28.20;47.80;;;;;;4997850;28;20038;-73
2022/07/03 08:57:02;;;;;;;0.95;0.80;;;28.40;47.40;;;;;;4971917;28;20046;-73
2022/07/03 08:59:34;;;;;;;1.10;0.88;;;28.70;47.30;;;;;;4956771;28;20032;-73
2022/07/03 09:02:00;;;;;;;1.40;1.17;;;28.90;46.70;;;;;;4985054;28;20613;-73
2022/07/03 09:04:25;;;;;;;1.25;0.70;;;29.10;46.60;;;;;;4979174;28;20119;-73
2022/07/03 09:06:51;;;;;;;1.38;1.00;;;29.30;46.30;;;;;;4971525;28;20383;-73
2022/07/03 09:09:16;;;;;;;2.42;1.10;;;29.40;45.90;;;;;;5006591;28;20572;-74
2022/07/03 09:11:42;;;;;;;1.20;0.95;;;29.60;45.60;;;;;;5010943;28;20079;-72
2022/07/03 09:14:07;;;;;;;1.08;0.82;;;29.80;45.20;;;;;;4995494;28;20034;-74
2022/07/03 09:16:36;;;;;;;0.93;0.90;;;30.00;44.90;;;;;;5014923;28;20578;-73
2022/07/03 09:19:03;;;;;;;2.70;0.90;;;30.10;44.60;;;;;;5010735;28;20037;-73
2022/07/03 09:21:41;;;;;;;1.45;0.80;;;30.20;44.50;;;;;;4971400;28;20384;-74
2022/07/03 09:24:08;;;;;;;4.05;0.75;;;30.40;43.20;;;;;;4976065;28;20033;-74
2022/07/03 09:26:33;;;;;;;0.95;0.80;;;30.50;43.80;;;;;;4981790;28;20487;-73
2022/07/03 09:28:59;;;;;;;1.20;1.10;;;30.70;43.60;;;;;;4947754;28;20081;-73
2022/07/03 09:31:26;;;;;;;2.05;0.90;;;30.90;43.20;;;;;;4993351;28;20123;-74
2022/07/03 09:33:56;;;;;;;1.63;0.70;;;31.10;42.80;;;;;;5004145;28;20056;-75
2022/07/03 09:36:22;;;;;;;2.05;0.80;;;31.30;42.70;;;;;;5008037;28;20668;-74
2022/07/03 09:38:48;;;;;;;0.60;0.60;;;31.50;42.20;;;;;;5009530;28;20045;-73
2022/07/03 09:41:14;;;;;;;4.95;0.75;;;31.50;41.70;;;;;;5003773;28;20090;-75
2022/07/03 09:43:43;;;;;;;1.02;0.50;;;31.70;41.40;;;;;;5026586;28;20037;-73
2022/07/03 09:46:08;;;;;;;2.97;0.50;;;31.90;40.60;;;;;;4998651;28;20455;-73
2022/07/03 09:48:35;;;;;;;1.33;0.70;;;32.10;40.30;;;;;;5035863;28;20048;-74
2022/07/03 09:51:10;;;;;;;1.65;0.52;;;32.30;39.90;;;;;;5047344;28;20025;-74
2022/07/03 09:53:50;;;;;;;2.33;0.70;;;32.40;38.60;;;;;;5026511;28;20080;-75
2022/07/03 09:56:16;;;;;;;0.63;0.32;;;32.60;38.10;;;;;;4997756;28;20049;-73
2022/07/03 09:58:58;;;;;;;0.60;0.50;;;32.70;38.60;;;;;;5032236;28;20737;-74
2022/07/03 10:01:23;;;;;;;1.13;0.70;;;32.80;38.40;;;;;;5030230;28;20064;-74
2022/07/03 10:03:49;;;;;;;1.05;0.57;;;33.10;38.20;;;;;;5051394;28;20117;-74
2022/07/03 10:06:14;;;;;;;3.38;0.40;;;33.30;37.80;;;;;;5030197;28;20119;-73
2022/07/03 10:08:41;;;;;;;0.32;0.30;;;33.50;37.40;;;;;;5032975;28;20124;-74
2022/07/03 10:11:07;;;;;;;0.93;0.50;;;33.60;36.60;;;;;;5031506;28;20071;-74
2022/07/03 10:13:32;;;;;;;0.65;0.40;;;33.70;36.10;;;;;;5046073;28;20060;-74
2022/07/03 10:15:58;;;;;;;1.15;0.50;;;33.80;35.70;;;;;;5027944;28;22362;-74
2022/07/03 10:18:23;;;;;;;1.38;0.20;;;33.90;35.40;;;;;;5047055;28;20029;-74
2022/07/03 10:20:49;;;;;;;0.40;0.40;;;34.00;35.20;;;;;;5033819;28;20108;-75
2022/07/03 10:23:16;;;;;;;1.88;0.50;;;34.00;34.80;;;;;;5017110;28;20041;-74
2022/07/03 10:25:42;;;;;;;0.40;0.40;;;34.10;34.60;;;;;;5005325;28;20108;-74
2022/07/03 10:28:08;;;;;;;1.65;0.50;;;34.20;34.30;;;;;;5036572;28;20053;-73
2022/07/03 10:30:33;;;;;;;3.05;0.43;;;34.30;34.00;;;;;;5031868;28;20611;-74
2022/07/03 10:32:59;;;;;;;1.95;0.60;;;34.40;33.80;;;;;;5002209;28;20036;-74
2022/07/03 10:35:34;;;;;;;0.85;0.30;;;34.60;33.70;;;;;;5039845;28;20039;-74
2022/07/03 10:38:03;;;;;;;1.70;0.40;;;34.80;32.60;;;;;;5012515;28;20037;-72
2022/07/03 10:46:17;;;;;;;0.40;0.30;;;35.40;32.30;;;;;;5025098;28;20436;-72
2022/07/03 10:49:11;;;;;;;0.68;0.50;;;35.50;32.40;;;;;;5007583;28;20028;-72
2022/07/03 10:51:55;;;;;;;1.48;0.40;;;35.80;31.10;;;;;;5027400;28;20397;-72
2022/07/03 10:54:27;;;;;;;0.30;0.30;;;36.00;31.00;;;;;;5050281;28;20022;-73
2022/07/03 10:56:58;;;;;;;0.40;0.30;;;36.10;31.50;;;;;;5034791;28;20652;-73
2022/07/03 10:59:44;;;;;;;0.40;0.25;;;36.10;31.00;;;;;;5020754;28;20048;-71
2022/07/03 11:02:41;;;;;;;2.83;0.50;;;36.20;30.20;;;;;;5037411;28;20165;-72
2022/07/03 11:05:18;;;;;;;0.40;0.40;;;36.30;29.90;;;;;;5043955;28;20082;-72
2022/07/03 11:07:49;;;;;;;1.45;0.60;;;36.30;30.70;;;;;;5031546;28;20041;-71
2022/07/03 11:10:15;;;;;;;1.85;0.50;;;36.20;30.40;;;;;;5042572;28;20077;-72
2022/07/03 11:12:59;;;;;;;0.60;0.40;;;36.40;30.60;;;;;;5023116;28;20035;-72
2022/07/03 11:15:47;;;;;;;0.95;0.35;;;36.50;29.80;;;;;;5033977;28;20138;-73
2022/07/03 11:18:35;;;;;;;1.48;0.40;;;36.60;29.90;;;;;;5002111;28;20040;-71
2022/07/03 11:21:02;;;;;;;1.83;0.52;;;36.80;29.20;;;;;;5031606;28;20600;-72
2022/07/03 11:23:28;;;;;;;1.17;0.32;;;36.90;29.90;;;;;;5022575;28;20124;-73
2022/07/03 11:25:56;;;;;;;1.08;0.50;;;37.00;29.70;;;;;;5054951;28;20029;-73
2022/07/03 11:28:30;;;;;;;2.40;0.60;;;37.10;29.50;;;;;;5012665;28;20036;-72
2022/07/03 11:33:55;;;;;;;3.63;0.50;;;37.20;28.80;;;;;;5033404;28;20022;-72
2022/07/03 11:36:30;;;;;;;1.00;0.35;;;37.30;28.70;;;;;;5033513;28;20025;-72
2022/07/03 11:38:59;;;;;;;0.95;0.50;;;37.40;28.70;;;;;;5013633;28;20044;-71
2022/07/03 11:41:25;;;;;;;1.88;1.20;;;37.40;29.00;;;;;;5045711;28;20032;-72
2022/07/03 11:43:55;;;;;;;6.90;0.95;;;37.40;28.80;;;;;;5022108;28;20383;-73
2022/07/03 11:46:23;;;;;;;0.93;0.40;;;37.40;28.70;;;;;;5038108;28;20029;-72
2022/07/03 11:48:48;;;;;;;0.75;0.60;;;37.40;28.70;;;;;;5020440;28;20033;-73
2022/07/03 11:51:14;;;;;;;0.50;0.40;;;37.50;28.70;;;;;;5021445;28;20166;-72
2022/07/03 11:53:40;;;;;;;2.38;0.60;;;37.60;28.50;;;;;;5026835;28;20044;-72
2022/07/03 11:56:10;;;;;;;0.45;0.45;;;37.60;28.30;;;;;;5030586;28;20044;-73
2022/07/03 11:58:46;;;;;;;1.70;0.68;;;37.70;27.90;;;;;;5031262;28;20036;-73
2022/07/03 12:01:27;;;;;;;3.20;0.47;;;37.70;27.70;;;;;;5032709;28;20033;-72
2022/07/03 12:04:13;;;;;;;1.80;0.40;;;37.70;27.30;;;;;;5029381;28;20124;-74
2022/07/03 12:06:51;;;;;;;1.35;0.98;;;37.80;27.80;;;;;;4995928;28;20650;-72
2022/07/03 12:09:33;;;;;;;1.13;0.63;;;37.80;28.00;;;;;;5034099;28;20032;-72
2022/07/03 12:12:10;;;;;;;0.50;0.40;;;37.90;28.00;;;;;;5031235;28;20113;-73
2022/07/03 12:14:49;;;;;;;0.52;0.40;;;38.10;27.80;;;;;;5029778;28;20119;-73
2022/07/03 12:17:15;;;;;;;3.13;0.47;;;38.30;27.80;;;;;;5014369;28;20049;-72
2022/07/03 12:19:58;;;;;;;1.15;0.52;;;38.50;27.60;;;;;;5047164;28;20032;-73
2022/07/03 12:22:31;;;;;;;2.15;0.38;;;38.50;27.20;;;;;;5032457;28;20033;-73
2022/07/03 12:25:10;;;;;;;0.73;0.20;;;38.50;27.10;;;;;;5013186;28;20036;-73
2022/07/03 12:27:38;;;;;;;1.25;0.30;;;38.60;26.90;;;;;;5008336;28;20114;-72
2022/07/03 12:30:07;;;;;;;0.30;0.30;;;38.80;26.90;;;;;;4986611;28;21596;-73
2022/07/03 12:32:33;;;;;;;1.85;0.30;;;38.90;26.70;;;;;;5022632;28;20182;-72
2022/07/03 12:34:58;;;;;;;0.82;0.40;;;38.90;26.60;;;;;;5032431;28;20810;-73
2022/07/03 12:37:40;;;;;;;0.30;0.30;;;38.90;26.60;;;;;;5048739;28;20588;-72
2022/07/03 12:40:06;;;;;;;1.77;0.25;;;39.10;25.90;;;;;;5013964;28;20037;-72
2022/07/03 12:42:51;;;;;;;0.45;0.40;;;39.20;26.30;;;;;;5025232;28;20446;-73
2022/07/03 12:45:24;;;;;;;0.90;0.40;;;39.30;25.80;;;;;;5012888;28;20040;-73
2022/07/03 12:48:07;;;;;;;0.70;0.40;;;39.30;26.20;;;;;;5007100;28;20033;-72
2022/07/03 12:50:45;;;;;;;0.50;0.30;;;39.10;26.20;;;;;;5011068;28;20736;-72
2022/07/03 12:53:11;;;;;;;0.50;0.40;;;39.10;25.60;;;;;;5005010;28;20065;-72
2022/07/03 12:55:36;;;;;;;0.90;0.40;;;39.10;26.00;;;;;;4994076;28;20040;-72
2022/07/03 13:00:58;;;;;;;1.85;0.30;;;39.30;25.80;;;;;;5008176;28;20044;-73
2022/07/03 13:03:28;;;;;;;0.40;0.40;;;39.30;26.10;;;;;;5023626;28;20120;-74
2022/07/03 13:05:54;;;;;;;0.30;0.30;;;39.40;25.90;;;;;;5016744;28;20041;-73
2022/07/03 13:08:19;;;;;;;2.40;0.30;;;39.40;26.00;;;;;;4979164;28;20033;-75
2022/07/03 13:10:53;;;;;;;0.55;0.40;;;39.30;25.90;;;;;;5028528;28;20516;-77
2022/07/03 13:13:19;;;;;;;1.27;0.70;;;39.30;25.90;;;;;;5039107;28;20236;-77